This is the latest recevied weather packets stored in our database for station/object TG9ADI-20. If no packets are shown the sender has not sent any weather packets the latest 10 day(s).
| Time | Temp. | Humidity | Pressure | Rain* | Wind** | Luminosity | Snow |
|---|---|---|---|---|---|---|---|
| 1777769170 | 18.89° C | 10% | - | 0 mm | - | - | - |
| 1777768569 | 19.44° C | 10% | - | 0 mm | - | - | - |
| 1777767969 | 20° C | 10% | - | 0 mm | - | - | - |
| 1777767368 | 20° C | 10% | - | 0 mm | - | - | - |
| 1777766767 | 20.56° C | 85% | 1012 hPa | 0 mm | - | - | - |
| 1777766167 | 21.11° C | 84% | 1011 hPa | 0 mm | - | - | - |
| 1777765566 | 21.67° C | 81% | 1011 hPa | 0 mm | - | - | - |
| 1777764966 | 22.78° C | 79% | 1011 hPa | 0 mm | - | - | - |
| 1777764365 | 23.89° C | 61% | 1010 hPa | 0 mm | - | - | - |
| 1777763764 | 24.44° C | 61% | 1010 hPa | 0 mm | - | - | - |
| 1777763164 | 26.67° C | 54% | 1010 hPa | 0 mm | - | - | - |
| 1777762563 | 25.56° C | 54% | 1010 hPa | 0 mm | - | - | - |
| 1777761962 | 25.56° C | 54% | 1010 hPa | 0 mm | - | - | - |
| 1777761362 | 26.11° C | 54% | 1010 hPa | 0 mm | - | - | - |
| 1777760761 | 26.67° C | 54% | 1010 hPa | 0 mm | - | - | - |
| 1777760160 | 26.11° C | 50% | 1010 hPa | 0 mm | - | - | - |
| 1777759560 | 28.33° C | 45% | 1009 hPa | 0 mm | - | - | - |
| 1777758959 | 28.89° C | 45% | 1009 hPa | 0 mm | - | - | - |
| 1777758359 | 29.44° C | 45% | 1009 hPa | 0 mm | - | - | - |
| 1777757758 | 29.44° C | 45% | 1009 hPa | 0 mm | - | - | - |
| 1777757157 | 26.11° C | 10% | - | 0 mm | - | - | - |
| 1777756557 | 27.22° C | 10% | - | 0 mm | - | - | - |
| 1777755956 | 27.22° C | 10% | - | 0 mm | - | - | - |
| 1777755355 | 27.22° C | 79% | 1009 hPa | 0 mm | - | - | - |
| 1777754755 | 27.78° C | 66% | 1009 hPa | 0 mm | - | - | - |
* Rain latest hour (hover to see other rain measurements)
** Current wind speed in m/s (hover to see current wind gust speed)